sensor_id;sensor_type;location;lat;lon;timestamp;temperature;humidity
67974;DHT22;54756;51.140;6.952;2023-01-15T00:01:48;7.20;90.10
67974;DHT22;54756;51.140;6.952;2023-01-15T00:03:49;7.20;90.40
67974;DHT22;54756;51.140;6.952;2023-01-15T00:05:49;7.10;90.80
67974;DHT22;54756;51.140;6.952;2023-01-15T00:07:50;7.00;91.20
67974;DHT22;54756;51.140;6.952;2023-01-15T00:09:51;7.00;91.20
67974;DHT22;54756;51.140;6.952;2023-01-15T00:11:52;7.00;91.20
67974;DHT22;54756;51.140;6.952;2023-01-15T00:13:52;6.90;91.40
67974;DHT22;54756;51.140;6.952;2023-01-15T00:15:53;6.80;91.30
67974;DHT22;54756;51.140;6.952;2023-01-15T00:17:53;6.80;91.30
67974;DHT22;54756;51.140;6.952;2023-01-15T00:19:54;6.70;91.30
67974;DHT22;54756;51.140;6.952;2023-01-15T00:21:54;6.70;91.60
67974;DHT22;54756;51.140;6.952;2023-01-15T00:23:55;6.70;91.60
67974;DHT22;54756;51.140;6.952;2023-01-15T00:26:15;6.60;91.30
67974;DHT22;54756;51.140;6.952;2023-01-15T00:28:35;6.50;91.50
67974;DHT22;54756;51.140;6.952;2023-01-15T00:30:40;6.50;91.70
67974;DHT22;54756;51.140;6.952;2023-01-15T00:32:42;6.50;91.90
67974;DHT22;54756;51.140;6.952;2023-01-15T00:34:43;6.40;92.10
67974;DHT22;54756;51.140;6.952;2023-01-15T00:36:43;6.40;92.10
67974;DHT22;54756;51.140;6.952;2023-01-15T00:38:44;6.30;92.10
67974;DHT22;54756;51.140;6.952;2023-01-15T00:40:44;6.20;92.20
67974;DHT22;54756;51.140;6.952;2023-01-15T00:42:45;6.20;92.30
67974;DHT22;54756;51.140;6.952;2023-01-15T00:44:46;6.20;92.50
67974;DHT22;54756;51.140;6.952;2023-01-15T00:46:46;6.20;92.40
67974;DHT22;54756;51.140;6.952;2023-01-15T00:48:47;6.10;92.40
67974;DHT22;54756;51.140;6.952;2023-01-15T00:50:48;6.10;92.30
67974;DHT22;54756;51.140;6.952;2023-01-15T00:52:48;6.10;92.40
67974;DHT22;54756;51.140;6.952;2023-01-15T00:54:49;6.00;92.40
67974;DHT22;54756;51.140;6.952;2023-01-15T00:56:49;6.00;92.40
67974;DHT22;54756;51.140;6.952;2023-01-15T00:58:50;6.00;92.70
67974;DHT22;54756;51.140;6.952;2023-01-15T01:00:54;5.90;92.60
67974;DHT22;54756;51.140;6.952;2023-01-15T01:02:56;5.90;92.80
67974;DHT22;54756;51.140;6.952;2023-01-15T01:04:56;5.90;92.90
67974;DHT22;54756;51.140;6.952;2023-01-15T01:06:57;5.90;92.90
67974;DHT22;54756;51.140;6.952;2023-01-15T01:08:58;5.90;92.80
67974;DHT22;54756;51.140;6.952;2023-01-15T01:11:09;5.90;92.90
67974;DHT22;54756;51.140;6.952;2023-01-15T01:13:10;5.90;92.90
67974;DHT22;54756;51.140;6.952;2023-01-15T01:15:11;5.90;92.90
67974;DHT22;54756;51.140;6.952;2023-01-15T01:17:11;5.90;93.00
67974;DHT22;54756;51.140;6.952;2023-01-15T01:19:15;5.90;93.00
67974;DHT22;54756;51.140;6.952;2023-01-15T01:21:16;5.80;92.60
67974;DHT22;54756;51.140;6.952;2023-01-15T01:23:17;5.80;92.60
67974;DHT22;54756;51.140;6.952;2023-01-15T01:25:18;5.80;92.60
67974;DHT22;54756;51.140;6.952;2023-01-15T01:27:18;5.80;92.70
67974;DHT22;54756;51.140;6.952;2023-01-15T01:29:20;5.80;92.70
67974;DHT22;54756;51.140;6.952;2023-01-15T01:31:22;5.80;92.70
67974;DHT22;54756;51.140;6.952;2023-01-15T01:33:23;5.90;92.60
67974;DHT22;54756;51.140;6.952;2023-01-15T01:35:23;5.90;92.50
67974;DHT22;54756;51.140;6.952;2023-01-15T01:37:24;5.90;92.40
67974;DHT22;54756;51.140;6.952;2023-01-15T01:39:24;5.90;92.50
67974;DHT22;54756;51.140;6.952;2023-01-15T01:41:26;5.90;92.50
67974;DHT22;54756;51.140;6.952;2023-01-15T01:43:28;5.90;92.40
67974;DHT22;54756;51.140;6.952;2023-01-15T01:45:32;5.90;92.30
67974;DHT22;54756;51.140;6.952;2023-01-15T01:47:33;6.00;92.10
67974;DHT22;54756;51.140;6.952;2023-01-15T01:49:35;6.00;92.10
67974;DHT22;54756;51.140;6.952;2023-01-15T01:52:07;6.00;92.20
67974;DHT22;54756;51.140;6.952;2023-01-15T01:54:12;6.10;92.30
67974;DHT22;54756;51.140;6.952;2023-01-15T01:56:15;6.10;92.30
67974;DHT22;54756;51.140;6.952;2023-01-15T01:58:19;6.10;92.30
67974;DHT22;54756;51.140;6.952;2023-01-15T02:00:21;6.10;92.40
67974;DHT22;54756;51.140;6.952;2023-01-15T02:02:23;6.00;92.10
67974;DHT22;54756;51.140;6.952;2023-01-15T02:04:25;6.10;91.70
67974;DHT22;54756;51.140;6.952;2023-01-15T02:06:27;6.10;91.20
67974;DHT22;54756;51.140;6.952;2023-01-15T02:08:28;6.10;91.30
67974;DHT22;54756;51.140;6.952;2023-01-15T02:10:32;6.10;91.20
67974;DHT22;54756;51.140;6.952;2023-01-15T02:12:35;6.10;91.30
67974;DHT22;54756;51.140;6.952;2023-01-15T02:14:54;6.10;91.30
67974;DHT22;54756;51.140;6.952;2023-01-15T02:17:11;6.10;91.10
67974;DHT22;54756;51.140;6.952;2023-01-15T02:21:56;6.20;90.40
67974;DHT22;54756;51.140;6.952;2023-01-15T02:29:01;6.20;90.10
67974;DHT22;54756;51.140;6.952;2023-01-15T02:31:16;6.20;90.10
67974;DHT22;54756;51.140;6.952;2023-01-15T02:33:36;6.20;90.10
67974;DHT22;54756;51.140;6.952;2023-01-15T02:35:49;6.20;90.20
67974;DHT22;54756;51.140;6.952;2023-01-15T02:37:54;6.20;90.20
67974;DHT22;54756;51.140;6.952;2023-01-15T02:39:58;6.20;90.20
67974;DHT22;54756;51.140;6.952;2023-01-15T02:42:02;6.20;90.00
67974;DHT22;54756;51.140;6.952;2023-01-15T02:44:04;6.20;90.00
67974;DHT22;54756;51.140;6.952;2023-01-15T02:46:06;6.20;89.50
67974;DHT22;54756;51.140;6.952;2023-01-15T02:48:14;6.20;90.00
67974;DHT22;54756;51.140;6.952;2023-01-15T02:50:20;6.20;90.00
67974;DHT22;54756;51.140;6.952;2023-01-15T02:52:28;6.20;90.00
67974;DHT22;54756;51.140;6.952;2023-01-15T02:54:52;6.20;90.00
67974;DHT22;54756;51.140;6.952;2023-01-15T02:56:56;6.20;89.90
67974;DHT22;54756;51.140;6.952;2023-01-15T02:59:00;6.20;88.40
67974;DHT22;54756;51.140;6.952;2023-01-15T03:01:08;6.20;89.00
67974;DHT22;54756;51.140;6.952;2023-01-15T03:08:01;6.30;87.50
67974;DHT22;54756;51.140;6.952;2023-01-15T03:10:03;6.30;86.30
67974;DHT22;54756;51.140;6.952;2023-01-15T03:12:11;6.30;85.80
67974;DHT22;54756;51.140;6.952;2023-01-15T03:16:49;6.40;86.10
67974;DHT22;54756;51.140;6.952;2023-01-15T03:19:04;6.40;86.20
67974;DHT22;54756;51.140;6.952;2023-01-15T03:21:09;6.40;85.90
67974;DHT22;54756;51.140;6.952;2023-01-15T03:23:12;6.40;85.50
67974;DHT22;54756;51.140;6.952;2023-01-15T03:25:20;6.40;85.90
67974;DHT22;54756;51.140;6.952;2023-01-15T03:27:24;6.40;86.30
67974;DHT22;54756;51.140;6.952;2023-01-15T03:29:28;6.40;86.60
67974;DHT22;54756;51.140;6.952;2023-01-15T03:31:29;6.40;84.70
67974;DHT22;54756;51.140;6.952;2023-01-15T03:33:30;6.40;84.70
67974;DHT22;54756;51.140;6.952;2023-01-15T03:37:49;6.40;86.10
67974;DHT22;54756;51.140;6.952;2023-01-15T03:39:50;6.30;85.80
67974;DHT22;54756;51.140;6.952;2023-01-15T03:44:44;6.30;86.40
67974;DHT22;54756;51.140;6.952;2023-01-15T03:46:53;6.30;86.30
67974;DHT22;54756;51.140;6.952;2023-01-15T03:49:02;6.30;85.80
67974;DHT22;54756;51.140;6.952;2023-01-15T03:51:22;6.30;86.30
67974;DHT22;54756;51.140;6.952;2023-01-15T03:53:39;6.30;86.00
67974;DHT22;54756;51.140;6.952;2023-01-15T03:56:07;6.30;85.80
67974;DHT22;54756;51.140;6.952;2023-01-15T03:58:18;6.30;86.00
67974;DHT22;54756;51.140;6.952;2023-01-15T04:00:55;6.30;84.80
67974;DHT22;54756;51.140;6.952;2023-01-15T04:02:48;6.40;84.80
67974;DHT22;54756;51.140;6.952;2023-01-15T04:04:51;6.40;84.00
67974;DHT22;54756;51.140;6.952;2023-01-15T04:06:54;6.40;84.00
67974;DHT22;54756;51.140;6.952;2023-01-15T04:08:55;6.40;82.90
67974;DHT22;54756;51.140;6.952;2023-01-15T04:10:59;6.40;82.70
67974;DHT22;54756;51.140;6.952;2023-01-15T04:12:59;6.40;81.80
67974;DHT22;54756;51.140;6.952;2023-01-15T04:15:00;6.50;81.80
67974;DHT22;54756;51.140;6.952;2023-01-15T04:17:01;6.40;80.70
67974;DHT22;54756;51.140;6.952;2023-01-15T04:19:01;6.40;80.50
67974;DHT22;54756;51.140;6.952;2023-01-15T04:21:02;6.40;80.00
67974;DHT22;54756;51.140;6.952;2023-01-15T04:23:02;6.40;78.80
67974;DHT22;54756;51.140;6.952;2023-01-15T04:25:04;6.40;78.10
67974;DHT22;54756;51.140;6.952;2023-01-15T04:27:05;6.40;77.70
67974;DHT22;54756;51.140;6.952;2023-01-15T04:29:06;6.40;78.60
67974;DHT22;54756;51.140;6.952;2023-01-15T04:31:07;6.40;78.80
67974;DHT22;54756;51.140;6.952;2023-01-15T04:33:08;6.40;78.70
67974;DHT22;54756;51.140;6.952;2023-01-15T04:35:08;6.40;79.30
67974;DHT22;54756;51.140;6.952;2023-01-15T04:37:09;6.40;78.70
67974;DHT22;54756;51.140;6.952;2023-01-15T04:39:09;6.40;79.10
67974;DHT22;54756;51.140;6.952;2023-01-15T04:41:14;6.40;79.10
67974;DHT22;54756;51.140;6.952;2023-01-15T04:43:35;6.40;80.10
67974;DHT22;54756;51.140;6.952;2023-01-15T04:45:54;6.40;80.10
67974;DHT22;54756;51.140;6.952;2023-01-15T04:47:55;6.40;79.30
67974;DHT22;54756;51.140;6.952;2023-01-15T04:49:55;6.40;79.70
67974;DHT22;54756;51.140;6.952;2023-01-15T04:51:56;6.40;80.20
67974;DHT22;54756;51.140;6.952;2023-01-15T04:53:57;6.40;80.20
67974;DHT22;54756;51.140;6.952;2023-01-15T04:56:02;6.40;80.30
67974;DHT22;54756;51.140;6.952;2023-01-15T04:58:03;6.50;80.00
67974;DHT22;54756;51.140;6.952;2023-01-15T05:00:03;6.50;79.00
67974;DHT22;54756;51.140;6.952;2023-01-15T05:02:04;6.50;79.30
67974;DHT22;54756;51.140;6.952;2023-01-15T05:04:07;6.50;79.90
67974;DHT22;54756;51.140;6.952;2023-01-15T05:06:08;6.60;79.30
67974;DHT22;54756;51.140;6.952;2023-01-15T05:08:09;6.60;78.90
67974;DHT22;54756;51.140;6.952;2023-01-15T05:10:09;6.60;78.80
67974;DHT22;54756;51.140;6.952;2023-01-15T05:12:10;6.60;78.70
67974;DHT22;54756;51.140;6.952;2023-01-15T05:14:11;6.70;78.00
67974;DHT22;54756;51.140;6.952;2023-01-15T05:16:16;6.70;78.30
67974;DHT22;54756;51.140;6.952;2023-01-15T05:18:17;6.70;78.80
67974;DHT22;54756;51.140;6.952;2023-01-15T05:20:17;6.70;79.00
67974;DHT22;54756;51.140;6.952;2023-01-15T05:22:18;6.60;78.60
67974;DHT22;54756;51.140;6.952;2023-01-15T05:24:18;6.60;78.80
67974;DHT22;54756;51.140;6.952;2023-01-15T05:26:20;6.60;78.70
67974;DHT22;54756;51.140;6.952;2023-01-15T05:28:20;6.60;78.80
67974;DHT22;54756;51.140;6.952;2023-01-15T05:30:21;6.60;79.10
67974;DHT22;54756;51.140;6.952;2023-01-15T05:32:21;6.60;79.40
67974;DHT22;54756;51.140;6.952;2023-01-15T05:34:22;6.60;79.50
67974;DHT22;54756;51.140;6.952;2023-01-15T05:36:25;6.60;79.80
67974;DHT22;54756;51.140;6.952;2023-01-15T05:38:26;6.60;79.80
67974;DHT22;54756;51.140;6.952;2023-01-15T05:40:27;6.50;79.90
67974;DHT22;54756;51.140;6.952;2023-01-15T05:42:27;6.50;79.40
67974;DHT22;54756;51.140;6.952;2023-01-15T05:44:28;6.60;79.40
67974;DHT22;54756;51.140;6.952;2023-01-15T05:46:30;6.60;79.70
67974;DHT22;54756;51.140;6.952;2023-01-15T05:48:30;6.60;79.50
67974;DHT22;54756;51.140;6.952;2023-01-15T05:50:31;6.60;78.20
67974;DHT22;54756;51.140;6.952;2023-01-15T05:52:31;6.60;77.90
67974;DHT22;54756;51.140;6.952;2023-01-15T05:54:33;6.70;78.30
67974;DHT22;54756;51.140;6.952;2023-01-15T05:56:35;6.70;77.50
67974;DHT22;54756;51.140;6.952;2023-01-15T05:58:36;6.70;77.30
67974;DHT22;54756;51.140;6.952;2023-01-15T06:00:37;6.70;77.20
67974;DHT22;54756;51.140;6.952;2023-01-15T06:02:37;6.70;76.70
67974;DHT22;54756;51.140;6.952;2023-01-15T06:04:38;6.70;76.90
67974;DHT22;54756;51.140;6.952;2023-01-15T06:06:39;6.80;77.10
67974;DHT22;54756;51.140;6.952;2023-01-15T06:08:40;6.70;75.80
67974;DHT22;54756;51.140;6.952;2023-01-15T06:10:43;6.80;75.80
67974;DHT22;54756;51.140;6.952;2023-01-15T06:12:44;6.80;75.70
67974;DHT22;54756;51.140;6.952;2023-01-15T06:14:45;6.80;75.50
67974;DHT22;54756;51.140;6.952;2023-01-15T06:16:45;6.80;75.20
67974;DHT22;54756;51.140;6.952;2023-01-15T06:18:46;6.80;74.90
67974;DHT22;54756;51.140;6.952;2023-01-15T06:20:47;6.80;75.10
67974;DHT22;54756;51.140;6.952;2023-01-15T06:22:48;6.80;75.00
67974;DHT22;54756;51.140;6.952;2023-01-15T06:24:48;6.90;75.00
67974;DHT22;54756;51.140;6.952;2023-01-15T06:26:49;6.80;75.70
67974;DHT22;54756;51.140;6.952;2023-01-15T06:28:49;6.80;75.20
67974;DHT22;54756;51.140;6.952;2023-01-15T06:30:50;6.80;75.80
67974;DHT22;54756;51.140;6.952;2023-01-15T06:32:51;6.80;76.10
67974;DHT22;54756;51.140;6.952;2023-01-15T06:34:51;6.80;76.00
67974;DHT22;54756;51.140;6.952;2023-01-15T06:36:52;6.80;75.60
67974;DHT22;54756;51.140;6.952;2023-01-15T06:38:53;6.80;75.80
67974;DHT22;54756;51.140;6.952;2023-01-15T06:40:58;6.80;76.50
67974;DHT22;54756;51.140;6.952;2023-01-15T06:42:59;6.80;76.50
67974;DHT22;54756;51.140;6.952;2023-01-15T06:45:18;6.70;76.60
67974;DHT22;54756;51.140;6.952;2023-01-15T06:47:37;6.70;76.60
67974;DHT22;54756;51.140;6.952;2023-01-15T06:49:37;6.70;76.90
67974;DHT22;54756;51.140;6.952;2023-01-15T06:51:38;6.70;77.20
67974;DHT22;54756;51.140;6.952;2023-01-15T06:53:39;6.60;77.30
67974;DHT22;54756;51.140;6.952;2023-01-15T06:55:40;6.60;77.40
67974;DHT22;54756;51.140;6.952;2023-01-15T06:57:40;6.60;77.90
67974;DHT22;54756;51.140;6.952;2023-01-15T06:59:41;6.60;77.70
67974;DHT22;54756;51.140;6.952;2023-01-15T07:01:41;6.60;77.70
67974;DHT22;54756;51.140;6.952;2023-01-15T07:03:42;6.60;77.50
67974;DHT22;54756;51.140;6.952;2023-01-15T07:05:42;6.60;77.40
67974;DHT22;54756;51.140;6.952;2023-01-15T07:07:43;6.70;77.60
67974;DHT22;54756;51.140;6.952;2023-01-15T07:09:44;6.70;77.50
67974;DHT22;54756;51.140;6.952;2023-01-15T07:11:44;6.70;77.60
67974;DHT22;54756;51.140;6.952;2023-01-15T07:13:50;6.60;77.40
67974;DHT22;54756;51.140;6.952;2023-01-15T07:16:05;6.70;77.60
67974;DHT22;54756;51.140;6.952;2023-01-15T07:18:29;6.60;77.90
67974;DHT22;54756;51.140;6.952;2023-01-15T07:20:30;6.60;77.90
67974;DHT22;54756;51.140;6.952;2023-01-15T07:22:31;6.60;77.90
67974;DHT22;54756;51.140;6.952;2023-01-15T07:24:32;6.60;77.60
67974;DHT22;54756;51.140;6.952;2023-01-15T07:26:33;6.60;76.90
67974;DHT22;54756;51.140;6.952;2023-01-15T07:28:34;6.60;78.30
67974;DHT22;54756;51.140;6.952;2023-01-15T07:30:34;6.60;77.90
67974;DHT22;54756;51.140;6.952;2023-01-15T07:32:35;6.60;78.10
67974;DHT22;54756;51.140;6.952;2023-01-15T07:34:36;6.60;78.30
67974;DHT22;54756;51.140;6.952;2023-01-15T07:36:36;6.50;78.50
67974;DHT22;54756;51.140;6.952;2023-01-15T07:38:37;6.50;79.00
67974;DHT22;54756;51.140;6.952;2023-01-15T07:40:37;6.50;79.10
67974;DHT22;54756;51.140;6.952;2023-01-15T07:42:38;6.40;79.30
67974;DHT22;54756;51.140;6.952;2023-01-15T07:44:57;6.40;79.40
67974;DHT22;54756;51.140;6.952;2023-01-15T07:49:40;6.40;79.90
67974;DHT22;54756;51.140;6.952;2023-01-15T07:51:48;6.30;80.00
67974;DHT22;54756;51.140;6.952;2023-01-15T07:53:48;6.30;79.90
67974;DHT22;54756;51.140;6.952;2023-01-15T07:55:49;6.30;80.10
67974;DHT22;54756;51.140;6.952;2023-01-15T07:57:49;6.30;79.80
67974;DHT22;54756;51.140;6.952;2023-01-15T07:59:50;6.30;79.70
67974;DHT22;54756;51.140;6.952;2023-01-15T08:01:51;6.40;79.70
67974;DHT22;54756;51.140;6.952;2023-01-15T08:03:51;6.40;79.30
67974;DHT22;54756;51.140;6.952;2023-01-15T08:05:52;6.40;79.60
67974;DHT22;54756;51.140;6.952;2023-01-15T08:07:52;6.40;79.30
67974;DHT22;54756;51.140;6.952;2023-01-15T08:09:53;6.40;79.40
67974;DHT22;54756;51.140;6.952;2023-01-15T08:11:54;6.40;79.30
67974;DHT22;54756;51.140;6.952;2023-01-15T08:14:13;6.40;78.80
67974;DHT22;54756;51.140;6.952;2023-01-15T08:16:34;6.50;78.10
67974;DHT22;54756;51.140;6.952;2023-01-15T08:18:36;6.50;78.10
67974;DHT22;54756;51.140;6.952;2023-01-15T08:20:37;6.50;78.00
67974;DHT22;54756;51.140;6.952;2023-01-15T08:22:38;6.50;77.80
67974;DHT22;54756;51.140;6.952;2023-01-15T08:24:39;6.50;77.10
67974;DHT22;54756;51.140;6.952;2023-01-15T08:26:40;6.50;76.50
67974;DHT22;54756;51.140;6.952;2023-01-15T08:28:40;6.50;76.20
67974;DHT22;54756;51.140;6.952;2023-01-15T08:30:41;6.50;74.90
67974;DHT22;54756;51.140;6.952;2023-01-15T08:32:41;6.50;74.10
67974;DHT22;54756;51.140;6.952;2023-01-15T08:34:42;6.50;72.20
67974;DHT22;54756;51.140;6.952;2023-01-15T08:36:42;6.50;70.80
67974;DHT22;54756;51.140;6.952;2023-01-15T08:38:43;6.50;68.80
67974;DHT22;54756;51.140;6.952;2023-01-15T08:40:43;6.50;69.40
67974;DHT22;54756;51.140;6.952;2023-01-15T08:42:59;6.50;69.10
67974;DHT22;54756;51.140;6.952;2023-01-15T08:45:00;6.50;69.00
67974;DHT22;54756;51.140;6.952;2023-01-15T08:47:00;6.50;67.80
67974;DHT22;54756;51.140;6.952;2023-01-15T08:49:01;6.40;67.70
67974;DHT22;54756;51.140;6.952;2023-01-15T08:51:06;6.40;67.00
67974;DHT22;54756;51.140;6.952;2023-01-15T08:53:06;6.40;67.10
67974;DHT22;54756;51.140;6.952;2023-01-15T08:55:07;6.40;67.70
67974;DHT22;54756;51.140;6.952;2023-01-15T08:57:08;6.30;68.00
67974;DHT22;54756;51.140;6.952;2023-01-15T08:59:11;6.30;68.60
67974;DHT22;54756;51.140;6.952;2023-01-15T09:01:12;6.30;68.50
67974;DHT22;54756;51.140;6.952;2023-01-15T09:03:16;6.30;68.60
67974;DHT22;54756;51.140;6.952;2023-01-15T09:05:16;6.30;68.90
67974;DHT22;54756;51.140;6.952;2023-01-15T09:07:17;6.20;69.70
67974;DHT22;54756;51.140;6.952;2023-01-15T09:09:17;6.20;70.50
67974;DHT22;54756;51.140;6.952;2023-01-15T09:11:18;6.20;71.30
67974;DHT22;54756;51.140;6.952;2023-01-15T09:13:18;6.10;71.80
67974;DHT22;54756;51.140;6.952;2023-01-15T09:15:19;6.10;72.50
67974;DHT22;54756;51.140;6.952;2023-01-15T09:17:19;6.00;73.10
67974;DHT22;54756;51.140;6.952;2023-01-15T09:19:20;6.00;73.50
67974;DHT22;54756;51.140;6.952;2023-01-15T09:21:21;6.00;74.10
67974;DHT22;54756;51.140;6.952;2023-01-15T09:23:21;5.90;74.00
67974;DHT22;54756;51.140;6.952;2023-01-15T09:25:22;5.80;74.30
67974;DHT22;54756;51.140;6.952;2023-01-15T09:27:24;5.80;74.40
67974;DHT22;54756;51.140;6.952;2023-01-15T09:29:24;5.70;75.20
67974;DHT22;54756;51.140;6.952;2023-01-15T09:31:25;5.60;76.90
67974;DHT22;54756;51.140;6.952;2023-01-15T09:33:26;5.60;76.60
67974;DHT22;54756;51.140;6.952;2023-01-15T09:35:27;5.50;76.60
67974;DHT22;54756;51.140;6.952;2023-01-15T09:37:27;5.50;77.50
67974;DHT22;54756;51.140;6.952;2023-01-15T09:39:28;5.50;78.20
67974;DHT22;54756;51.140;6.952;2023-01-15T09:44:31;5.60;78.60
67974;DHT22;54756;51.140;6.952;2023-01-15T09:51:55;5.80;77.70
67974;DHT22;54756;51.140;6.952;2023-01-15T09:56:02;6.00;77.30
67974;DHT22;54756;51.140;6.952;2023-01-15T09:58:05;6.00;77.10
67974;DHT22;54756;51.140;6.952;2023-01-15T10:00:06;6.10;76.30
67974;DHT22;54756;51.140;6.952;2023-01-15T10:02:26;6.20;75.80
67974;DHT22;54756;51.140;6.952;2023-01-15T10:04:39;6.20;75.80
67974;DHT22;54756;51.140;6.952;2023-01-15T10:06:47;6.40;75.60
67974;DHT22;54756;51.140;6.952;2023-01-15T10:08:50;6.60;74.10
67974;DHT22;54756;51.140;6.952;2023-01-15T10:11:00;6.70;73.50
67974;DHT22;54756;51.140;6.952;2023-01-15T10:13:18;6.90;70.40
67974;DHT22;54756;51.140;6.952;2023-01-15T10:15:31;7.00;69.60
67974;DHT22;54756;51.140;6.952;2023-01-15T10:17:43;7.00;67.70
67974;DHT22;54756;51.140;6.952;2023-01-15T10:19:44;7.10;65.40
67974;DHT22;54756;51.140;6.952;2023-01-15T10:22:03;7.30;65.50
67974;DHT22;54756;51.140;6.952;2023-01-15T10:26:35;7.60;63.60
67974;DHT22;54756;51.140;6.952;2023-01-15T10:28:52;7.70;59.50
67974;DHT22;54756;51.140;6.952;2023-01-15T10:30:56;7.70;58.80
67974;DHT22;54756;51.140;6.952;2023-01-15T10:33:03;7.80;58.10
67974;DHT22;54756;51.140;6.952;2023-01-15T10:44:47;7.90;55.00
67974;DHT22;54756;51.140;6.952;2023-01-15T10:46:57;8.00;54.90
67974;DHT22;54756;51.140;6.952;2023-01-15T10:49:03;8.10;54.30
67974;DHT22;54756;51.140;6.952;2023-01-15T10:51:22;8.10;53.60
67974;DHT22;54756;51.140;6.952;2023-01-15T10:53:37;8.10;52.70
67974;DHT22;54756;51.140;6.952;2023-01-15T10:55:47;8.10;50.80
67974;DHT22;54756;51.140;6.952;2023-01-15T11:00:07;8.00;52.60
67974;DHT22;54756;51.140;6.952;2023-01-15T11:02:23;8.10;52.90
67974;DHT22;54756;51.140;6.952;2023-01-15T11:04:26;8.10;52.90
67974;DHT22;54756;51.140;6.952;2023-01-15T11:06:30;8.10;52.70
67974;DHT22;54756;51.140;6.952;2023-01-15T11:08:32;8.10;53.20
67974;DHT22;54756;51.140;6.952;2023-01-15T11:10:33;8.10;52.30
67974;DHT22;54756;51.140;6.952;2023-01-15T11:12:34;8.20;49.60
67974;DHT22;54756;51.140;6.952;2023-01-15T11:14:53;8.10;49.60
67974;DHT22;54756;51.140;6.952;2023-01-15T11:17:13;8.20;49.70
67974;DHT22;54756;51.140;6.952;2023-01-15T11:19:39;8.40;48.90
67974;DHT22;54756;51.140;6.952;2023-01-15T11:21:43;8.60;46.40
67974;DHT22;54756;51.140;6.952;2023-01-15T11:23:44;8.60;46.70
67974;DHT22;54756;51.140;6.952;2023-01-15T11:25:56;8.60;46.10
67974;DHT22;54756;51.140;6.952;2023-01-15T11:28:01;8.70;45.50
67974;DHT22;54756;51.140;6.952;2023-01-15T11:30:05;8.70;45.00
67974;DHT22;54756;51.140;6.952;2023-01-15T11:32:20;8.70;46.40
67974;DHT22;54756;51.140;6.952;2023-01-15T11:34:21;8.80;46.80
67974;DHT22;54756;51.140;6.952;2023-01-15T11:36:25;8.80;44.10
67974;DHT22;54756;51.140;6.952;2023-01-15T11:38:29;8.90;44.80
67974;DHT22;54756;51.140;6.952;2023-01-15T11:40:30;8.90;43.30
67974;DHT22;54756;51.140;6.952;2023-01-15T11:42:31;8.90;42.50
67974;DHT22;54756;51.140;6.952;2023-01-15T11:44:56;8.80;43.90
67974;DHT22;54756;51.140;6.952;2023-01-15T11:47:17;8.60;44.80
67974;DHT22;54756;51.140;6.952;2023-01-15T11:49:36;8.50;46.30
67974;DHT22;54756;51.140;6.952;2023-01-15T11:51:57;8.60;47.60
67974;DHT22;54756;51.140;6.952;2023-01-15T11:54:03;8.70;46.20
67974;DHT22;54756;51.140;6.952;2023-01-15T11:56:08;8.70;45.00
67974;DHT22;54756;51.140;6.952;2023-01-15T11:58:09;8.70;44.80
67974;DHT22;54756;51.140;6.952;2023-01-15T12:00:28;8.80;46.00
67974;DHT22;54756;51.140;6.952;2023-01-15T12:02:36;9.00;42.70
67974;DHT22;54756;51.140;6.952;2023-01-15T12:04:53;9.10;38.70
67974;DHT22;54756;51.140;6.952;2023-01-15T12:06:56;9.20;39.60
67974;DHT22;54756;51.140;6.952;2023-01-15T12:15:48;9.60;35.50
67974;DHT22;54756;51.140;6.952;2023-01-15T12:20:26;10.50;28.40
67974;DHT22;54756;51.140;6.952;2023-01-15T12:22:49;10.90;28.70
67974;DHT22;54756;51.140;6.952;2023-01-15T12:29:45;11.00;22.10
67974;DHT22;54756;51.140;6.952;2023-01-15T12:31:52;10.40;24.80
67974;DHT22;54756;51.140;6.952;2023-01-15T12:34:07;10.00;29.40
67974;DHT22;54756;51.140;6.952;2023-01-15T12:36:20;9.60;33.30
67974;DHT22;54756;51.140;6.952;2023-01-15T12:38:30;9.50;34.20
67974;DHT22;54756;51.140;6.952;2023-01-15T12:41:01;9.60;34.10
67974;DHT22;54756;51.140;6.952;2023-01-15T12:43:14;9.80;35.10
67974;DHT22;54756;51.140;6.952;2023-01-15T12:45:41;10.80;26.70
67974;DHT22;54756;51.140;6.952;2023-01-15T12:47:53;10.90;23.70
67974;DHT22;54756;51.140;6.952;2023-01-15T12:50:11;11.70;19.50
67974;DHT22;54756;51.140;6.952;2023-01-15T12:52:23;12.80;13.70
67974;DHT22;54756;51.140;6.952;2023-01-15T12:54:35;13.30;2.10
67974;DHT22;54756;51.140;6.952;2023-01-15T12:57:35;13.00;1.00
67974;DHT22;54756;51.140;6.952;2023-01-15T13:01:30;12.30;6.30
67974;DHT22;54756;51.140;6.952;2023-01-15T13:10:32;10.70;20.30
67974;DHT22;54756;51.140;6.952;2023-01-15T13:12:35;10.40;24.40
67974;DHT22;54756;51.140;6.952;2023-01-15T13:14:36;10.20;27.30
67974;DHT22;54756;51.140;6.952;2023-01-15T13:16:51;10.40;26.80
67974;DHT22;54756;51.140;6.952;2023-01-15T13:21:19;12.40;10.60
67974;DHT22;54756;51.140;6.952;2023-01-15T13:32:48;13.20;1.40
67974;DHT22;54756;51.140;6.952;2023-01-15T13:34:50;13.20;1.00
67974;DHT22;54756;51.140;6.952;2023-01-15T13:39:16;12.20;3.70
67974;DHT22;54756;51.140;6.952;2023-01-15T13:41:25;11.50;8.50
67974;DHT22;54756;51.140;6.952;2023-01-15T13:43:45;10.90;14.10
67974;DHT22;54756;51.140;6.952;2023-01-15T13:45:49;10.20;19.30
67974;DHT22;54756;51.140;6.952;2023-01-15T13:47:51;9.80;23.80
67974;DHT22;54756;51.140;6.952;2023-01-15T13:49:59;9.50;26.30
67974;DHT22;54756;51.140;6.952;2023-01-15T13:52:01;9.30;30.00
67974;DHT22;54756;51.140;6.952;2023-01-15T13:54:04;9.00;30.70
67974;DHT22;54756;51.140;6.952;2023-01-15T13:56:12;8.90;32.00
67974;DHT22;54756;51.140;6.952;2023-01-15T13:58:37;8.70;34.90
67974;DHT22;54756;51.140;6.952;2023-01-15T14:00:38;8.50;34.80
67974;DHT22;54756;51.140;6.952;2023-01-15T14:02:39;8.40;36.40
67974;DHT22;54756;51.140;6.952;2023-01-15T14:04:50;8.40;36.80
67974;DHT22;54756;51.140;6.952;2023-01-15T14:06:51;8.30;38.80
67974;DHT22;54756;51.140;6.952;2023-01-15T14:08:52;8.30;38.50
67974;DHT22;54756;51.140;6.952;2023-01-15T14:10:54;8.20;38.20
67974;DHT22;54756;51.140;6.952;2023-01-15T14:20:44;8.10;40.90
67974;DHT22;54756;51.140;6.952;2023-01-15T14:23:25;8.10;41.30
67974;DHT22;54756;51.140;6.952;2023-01-15T14:30:27;8.10;42.10
67974;DHT22;54756;51.140;6.952;2023-01-15T14:35:18;8.10;40.80
67974;DHT22;54756;51.140;6.952;2023-01-15T14:38:17;8.10;42.40
67974;DHT22;54756;51.140;6.952;2023-01-15T14:39:55;8.10;42.90
67974;DHT22;54756;51.140;6.952;2023-01-15T14:42:04;8.00;43.50
67974;DHT22;54756;51.140;6.952;2023-01-15T14:44:29;7.90;44.20
67974;DHT22;54756;51.140;6.952;2023-01-15T14:46:32;7.90;44.30
67974;DHT22;54756;51.140;6.952;2023-01-15T14:48:40;7.90;45.20
67974;DHT22;54756;51.140;6.952;2023-01-15T14:50:41;7.80;45.50
67974;DHT22;54756;51.140;6.952;2023-01-15T14:52:44;7.80;45.60
67974;DHT22;54756;51.140;6.952;2023-01-15T14:54:45;7.80;45.40
67974;DHT22;54756;51.140;6.952;2023-01-15T14:56:54;7.80;46.10
67974;DHT22;54756;51.140;6.952;2023-01-15T14:59:27;7.80;46.90
67974;DHT22;54756;51.140;6.952;2023-01-15T15:04:31;7.80;44.90
67974;DHT22;54756;51.140;6.952;2023-01-15T15:06:25;7.90;45.60